createdAt,value
2019-02-05T00:00:44.643Z,9.10
2019-02-05T00:03:14.554Z,9.05
2019-02-05T00:05:42.858Z,9.25
2019-02-05T00:08:11.271Z,10.03
2019-02-05T00:10:39.531Z,8.23
2019-02-05T00:13:07.799Z,10.08
2019-02-05T00:15:36.166Z,8.95
2019-02-05T00:18:04.494Z,9.33
2019-02-05T00:20:32.838Z,9.50
2019-02-05T00:23:01.094Z,9.13
2019-02-05T00:25:29.438Z,9.55
2019-02-05T00:27:57.691Z,8.90
2019-02-05T00:30:26.322Z,9.05
2019-02-05T00:32:54.627Z,8.83
2019-02-05T00:35:22.987Z,9.35
2019-02-05T00:37:51.265Z,8.65
2019-02-05T00:40:19.586Z,9.40
2019-02-05T00:42:47.860Z,9.33
2019-02-05T00:45:17.835Z,8.38
2019-02-05T00:47:46.107Z,8.65
2019-02-05T00:50:18.603Z,9.05
2019-02-05T00:52:46.946Z,9.85
2019-02-05T00:55:22.323Z,9.53
2019-02-05T00:57:50.667Z,9.40
2019-02-05T01:00:34.837Z,9.05
2019-02-05T01:03:03.188Z,8.73
2019-02-05T01:05:31.516Z,9.25
2019-02-05T01:07:59.855Z,9.23
2019-02-05T01:10:28.175Z,9.85
2019-02-05T01:12:56.920Z,8.95
2019-02-05T01:15:25.764Z,9.70
2019-02-05T01:17:54.100Z,11.20
2019-02-05T01:20:23.086Z,9.43
2019-02-05T01:22:51.382Z,9.83
2019-02-05T01:25:20.760Z,9.08
2019-02-05T01:27:49.391Z,9.63
2019-02-05T01:30:24.665Z,10.35
2019-02-05T01:32:52.967Z,9.95
2019-02-05T01:35:21.338Z,10.28
2019-02-05T01:37:49.666Z,9.23
2019-02-05T01:40:19.887Z,9.65
2019-02-05T01:42:48.160Z,9.57
2019-02-05T01:45:17.767Z,9.88
2019-02-05T01:47:46.092Z,9.98
2019-02-05T01:50:17.467Z,9.30
2019-02-05T01:52:45.719Z,10.10
2019-02-05T01:55:13.978Z,9.20
2019-02-05T01:57:42.615Z,10.88
2019-02-05T02:00:17.319Z,10.40
2019-02-05T02:02:45.624Z,11.12
2019-02-05T02:05:13.956Z,10.40
2019-02-05T02:07:42.309Z,10.82
2019-02-05T02:10:22.991Z,12.10
2019-02-05T02:12:51.331Z,10.55
2019-02-05T02:15:19.618Z,9.83
2019-02-05T02:17:47.890Z,9.65
2019-02-05T02:20:20.974Z,8.88
2019-02-05T02:22:49.306Z,9.18
2019-02-05T02:25:17.672Z,8.98
2019-02-05T02:27:46.370Z,9.58
2019-02-05T02:30:32.949Z,9.95
2019-02-05T02:33:01.267Z,8.25
2019-02-05T02:35:29.555Z,8.75
2019-02-05T02:37:57.881Z,9.48
2019-02-05T02:40:26.143Z,9.85
2019-02-05T02:42:54.516Z,9.88
2019-02-05T02:45:22.780Z,8.53
2019-02-05T02:47:51.211Z,10.15
2019-02-05T02:50:21.328Z,10.75
2019-02-05T02:52:50.124Z,10.15
2019-02-05T02:55:18.448Z,10.93
2019-02-05T02:57:46.734Z,10.38
2019-02-05T03:00:22.007Z,10.75
2019-02-05T03:02:51.782Z,11.73
2019-02-05T03:05:22.458Z,12.10
2019-02-05T03:07:50.871Z,10.45
2019-02-05T03:10:26.935Z,12.28
2019-02-05T03:12:55.444Z,11.83
2019-02-05T03:15:23.787Z,13.45
2019-02-05T03:17:52.050Z,12.25
2019-02-05T03:20:20.439Z,11.73
2019-02-05T03:22:48.782Z,10.58
2019-02-05T03:25:22.014Z,12.07
2019-02-05T03:28:00.016Z,10.98
2019-02-05T03:30:22.048Z,12.75
2019-02-05T03:32:50.502Z,14.68
2019-02-05T03:35:19.260Z,14.70
2019-02-05T03:37:47.659Z,14.63
2019-02-05T03:40:31.423Z,15.72
2019-02-05T03:42:59.801Z,12.70
2019-02-05T03:45:29.057Z,15.15
2019-02-05T03:48:04.323Z,15.10
2019-02-05T03:50:35.907Z,16.27
2019-02-05T03:53:07.808Z,13.13
2019-02-05T03:55:42.380Z,14.18
2019-02-05T03:58:30.610Z,15.35
2019-02-05T04:01:19.788Z,14.78
2019-02-05T04:04:09.392Z,14.87
2019-02-05T04:06:53.090Z,13.03
2019-02-05T04:09:48.486Z,14.07
2019-02-05T04:12:22.944Z,15.83
2019-02-05T04:15:06.423Z,17.32
2019-02-05T04:17:46.766Z,15.68
2019-02-05T04:20:27.160Z,15.17
2019-02-05T04:26:00.623Z,13.10
2019-02-05T04:28:32.171Z,14.65
2019-02-05T04:31:09.688Z,13.13
2019-02-05T04:33:46.903Z,14.30
2019-02-05T04:36:38.887Z,15.05
2019-02-05T04:39:22.310Z,14.60
2019-02-05T04:42:02.422Z,14.05
2019-02-05T04:44:45.797Z,13.18
2019-02-05T04:47:33.895Z,13.38
2019-02-05T04:50:26.380Z,13.43
2019-02-05T04:53:18.826Z,12.90
2019-02-05T04:55:52.948Z,12.40
2019-02-05T04:58:30.254Z,13.35
2019-02-05T05:01:04.231Z,13.38
2019-02-05T05:04:02.153Z,11.73
2019-02-05T05:06:57.671Z,10.72
2019-02-05T05:09:43.792Z,11.95
2019-02-05T05:12:12.100Z,10.95
2019-02-05T05:14:40.947Z,13.13
2019-02-05T05:17:09.305Z,10.85
2019-02-05T05:19:37.652Z,12.58
2019-02-05T05:22:06.011Z,12.28
2019-02-05T05:24:34.555Z,13.18
2019-02-05T05:27:02.820Z,13.98
2019-02-05T05:29:33.185Z,13.72
2019-02-05T05:32:01.166Z,13.90
2019-02-05T05:34:29.559Z,11.48
2019-02-05T05:36:57.009Z,13.05
2019-02-05T05:39:25.407Z,12.00
2019-02-05T05:41:53.717Z,13.65
2019-02-05T05:44:22.067Z,13.60
2019-02-05T05:46:50.426Z,12.78
2019-02-05T05:49:19.067Z,13.60
2019-02-05T05:51:47.339Z,12.53
2019-02-05T05:54:15.594Z,13.22
2019-02-05T05:56:43.958Z,13.67
2019-02-05T05:59:12.220Z,12.93
2019-02-05T06:01:40.556Z,13.45
2019-02-05T06:04:08.830Z,14.25
2019-02-05T06:06:37.172Z,12.90
2019-02-05T06:09:07.384Z,12.47
2019-02-05T06:11:35.721Z,13.67
2019-02-05T06:14:04.058Z,15.85
2019-02-05T06:16:32.327Z,13.93
2019-02-05T06:19:00.680Z,13.05
2019-02-05T06:21:29.015Z,16.55
2019-02-05T06:24:16.722Z,13.60
2019-02-05T06:26:45.059Z,13.07
2019-02-05T06:29:13.331Z,16.45
2019-02-05T06:31:41.692Z,13.80
2019-02-05T06:34:10.030Z,15.38
2019-02-05T06:36:38.394Z,14.63
2019-02-05T06:39:07.891Z,15.48
2019-02-05T06:41:36.634Z,14.83
2019-02-05T06:44:05.023Z,14.47
2019-02-05T06:46:33.376Z,15.45
2019-02-05T06:49:01.706Z,16.45
2019-02-05T06:51:30.650Z,14.96
2019-02-05T06:53:59.589Z,13.58
2019-02-05T06:56:28.027Z,14.38
2019-02-05T06:58:56.395Z,15.40
2019-02-05T07:01:24.730Z,15.43
2019-02-05T07:03:53.111Z,14.00
2019-02-05T07:06:21.444Z,15.30
2019-02-05T07:08:49.840Z,13.45
2019-02-05T07:11:18.597Z,15.72
2019-02-05T07:13:46.955Z,15.40
2019-02-05T07:16:15.295Z,14.98
2019-02-05T07:18:43.618Z,15.32
2019-02-05T07:21:11.971Z,16.27
2019-02-05T07:23:59.734Z,17.15
2019-02-05T07:26:28.390Z,14.87
2019-02-05T07:28:58.981Z,15.05
2019-02-05T07:31:26.743Z,16.10
2019-02-05T07:33:55.076Z,13.78
2019-02-05T07:36:23.462Z,13.93
2019-02-05T07:38:51.819Z,16.15
2019-02-05T07:41:20.193Z,13.78
2019-02-05T07:43:48.952Z,13.03
2019-02-05T07:46:17.382Z,14.03
2019-02-05T07:48:45.745Z,14.60
2019-02-05T07:51:14.113Z,15.40
2019-02-05T07:53:42.456Z,14.33
2019-02-05T07:56:12.917Z,14.95
2019-02-05T07:58:40.844Z,15.77
2019-02-05T08:01:09.170Z,17.87
2019-02-05T08:03:37.548Z,15.68
2019-02-05T08:06:05.891Z,15.80
2019-02-05T08:08:34.268Z,14.85
2019-02-05T08:11:02.602Z,15.85
2019-02-05T08:13:30.900Z,16.15
2019-02-05T08:15:59.234Z,17.73
2019-02-05T08:18:27.648Z,15.75
2019-02-05T08:20:56.008Z,16.42
2019-02-05T08:23:24.746Z,16.65
2019-02-05T08:25:53.094Z,15.65
2019-02-05T08:28:21.348Z,14.80
2019-02-05T08:30:49.806Z,14.98
2019-02-05T08:33:18.147Z,15.68
2019-02-05T08:35:46.540Z,16.82
2019-02-05T08:38:14.877Z,16.23
2019-02-05T08:40:43.802Z,16.37
2019-02-05T08:43:12.097Z,15.10
2019-02-05T08:45:40.456Z,16.20
2019-02-05T08:48:11.197Z,18.37
2019-02-05T08:50:39.512Z,16.90
2019-02-05T08:53:07.868Z,16.80
2019-02-05T08:55:36.256Z,13.88
2019-02-05T08:58:07.981Z,18.50
2019-02-05T09:00:40.705Z,17.02
2019-02-05T09:03:10.707Z,14.33
2019-02-05T09:05:39.235Z,17.92
2019-02-05T09:08:07.638Z,17.67
2019-02-05T09:10:37.919Z,16.65
2019-02-05T09:13:06.413Z,19.93
2019-02-05T09:15:34.787Z,16.12
2019-02-05T09:18:03.152Z,17.15
2019-02-05T09:20:31.524Z,17.75
2019-02-05T09:22:59.908Z,18.20
2019-02-05T09:25:28.276Z,17.75
2019-02-05T09:27:56.605Z,16.37
2019-02-05T09:30:30.766Z,16.65
2019-02-05T09:33:01.545Z,18.12
2019-02-05T09:35:29.935Z,17.15
2019-02-05T09:37:58.338Z,17.67
2019-02-05T09:40:28.557Z,16.90
2019-02-05T09:42:56.927Z,16.10
2019-02-05T09:45:25.570Z,15.98
2019-02-05T09:47:54.419Z,16.23
2019-02-05T09:50:22.794Z,16.02
2019-02-05T09:52:51.241Z,14.73
2019-02-05T09:55:20.650Z,14.20
2019-02-05T09:57:48.996Z,14.10
2019-02-05T10:00:20.515Z,13.85
2019-02-05T10:02:48.872Z,13.98
2019-02-05T10:05:19.692Z,14.35
2019-02-05T10:07:48.073Z,14.47
2019-02-05T10:10:18.577Z,13.93
2019-02-05T10:15:20.867Z,15.78
2019-02-05T10:17:49.543Z,13.70
2019-02-05T10:20:18.824Z,14.13
2019-02-05T10:22:48.432Z,15.90
2019-02-05T10:25:17.405Z,12.98
2019-02-05T10:27:45.785Z,14.00
2019-02-05T10:30:17.657Z,12.73
2019-02-05T10:32:46.028Z,14.05
2019-02-05T10:35:14.400Z,15.10
2019-02-05T10:37:42.876Z,13.32
2019-02-05T10:40:13.174Z,12.78
2019-02-05T10:42:44.101Z,12.07
2019-02-05T10:45:17.355Z,13.40
2019-02-05T10:47:46.036Z,13.35
2019-02-05T10:50:16.345Z,12.05
2019-02-05T10:52:45.086Z,15.05
2019-02-05T10:55:18.539Z,13.50
2019-02-05T10:57:48.144Z,14.85
2019-02-05T11:00:25.785Z,14.25
2019-02-05T11:02:54.651Z,12.90
2019-02-05T11:05:25.528Z,12.53
2019-02-05T11:07:53.948Z,12.40
2019-02-05T11:10:22.335Z,12.63
2019-02-05T11:12:50.659Z,12.68
2019-02-05T11:15:21.484Z,12.60
2019-02-05T11:17:49.802Z,13.58
2019-02-05T11:20:20.751Z,13.13
2019-02-05T11:22:49.693Z,11.75
2019-02-05T11:25:18.091Z,11.97
2019-02-05T11:27:46.414Z,13.28
2019-02-05T11:30:23.467Z,14.38
2019-02-05T11:32:53.000Z,11.70
2019-02-05T11:35:21.539Z,11.97
2019-02-05T11:37:50.283Z,11.78
2019-02-05T11:40:21.796Z,13.20
2019-02-05T11:42:50.136Z,12.23
2019-02-05T11:45:19.502Z,12.25
2019-02-05T11:47:49.422Z,11.48
2019-02-05T11:50:18.457Z,13.13
2019-02-05T11:52:46.803Z,13.10
2019-02-05T11:55:21.152Z,12.90
2019-02-05T11:57:49.490Z,12.43
2019-02-05T12:00:31.819Z,11.25
2019-02-05T12:02:51.222Z,12.98
2019-02-05T12:05:19.607Z,12.85
2019-02-05T12:07:48.015Z,12.18
2019-02-05T12:10:16.646Z,11.53
2019-02-05T12:12:44.982Z,11.53
2019-02-05T12:15:17.003Z,12.63
2019-02-05T12:17:45.318Z,12.33
2019-02-05T12:20:34.735Z,11.70
2019-02-05T12:23:03.371Z,10.63
2019-02-05T12:25:31.684Z,11.57
2019-02-05T12:28:00.039Z,12.75
2019-02-05T12:30:44.573Z,12.25
2019-02-05T12:33:04.808Z,11.30
2019-02-05T12:35:33.163Z,11.53
2019-02-05T12:38:02.005Z,12.20
2019-02-05T12:40:30.268Z,12.60
2019-02-05T12:42:58.617Z,13.05
2019-02-05T12:45:30.197Z,11.85
2019-02-05T12:47:58.556Z,11.22
2019-02-05T12:50:35.711Z,11.48
2019-02-05T12:53:04.675Z,12.15
2019-02-05T12:55:33.072Z,12.98
2019-02-05T12:58:01.430Z,12.03
2019-02-05T13:00:37.483Z,10.35
2019-02-05T13:03:07.311Z,11.45
2019-02-05T13:05:35.572Z,10.90
2019-02-05T13:08:05.426Z,11.22
2019-02-05T13:10:42.794Z,11.20
2019-02-05T13:13:11.170Z,11.20
2019-02-05T13:15:39.498Z,11.03
2019-02-05T13:18:07.959Z,11.25
2019-02-05T13:20:36.642Z,9.78
2019-02-05T13:23:06.047Z,10.72
2019-02-05T13:25:34.721Z,9.80
2019-02-05T13:28:03.205Z,10.58
2019-02-05T13:30:34.084Z,9.73
2019-02-05T13:33:02.399Z,9.75
2019-02-05T13:35:31.180Z,9.10
2019-02-05T13:37:59.510Z,9.75
2019-02-05T13:40:28.619Z,9.83
2019-02-05T13:42:57.316Z,8.75
2019-02-05T13:45:37.071Z,8.85
2019-02-05T13:48:06.404Z,9.33
2019-02-05T13:50:34.731Z,9.38
2019-02-05T13:53:02.990Z,8.75
2019-02-05T13:55:36.387Z,9.33
2019-02-05T13:58:05.165Z,8.95
2019-02-05T14:00:35.719Z,9.33
2019-02-05T14:03:04.600Z,9.83
2019-02-05T14:05:32.860Z,8.98
2019-02-05T14:08:01.204Z,10.03
2019-02-05T14:10:32.531Z,8.75
2019-02-05T14:13:00.868Z,8.38
2019-02-05T14:15:37.876Z,9.35
2019-02-05T14:18:07.142Z,9.20
2019-02-05T14:20:35.612Z,9.18
2019-02-05T14:23:04.067Z,7.83
2019-02-05T14:25:32.734Z,8.83
2019-02-05T14:28:01.215Z,8.50
2019-02-05T14:30:38.588Z,7.40
2019-02-05T14:33:06.939Z,7.72
2019-02-05T14:35:35.278Z,7.75
2019-02-05T14:38:04.102Z,8.53
2019-02-05T14:40:32.452Z,7.90
2019-02-05T14:43:00.779Z,8.40
2019-02-05T14:45:29.057Z,8.68
2019-02-05T14:47:58.045Z,8.80
2019-02-05T14:50:29.192Z,8.95
2019-02-05T14:52:57.488Z,8.43
2019-02-05T14:55:25.825Z,9.38
2019-02-05T14:57:54.074Z,8.40
2019-02-05T15:00:35.366Z,8.40
2019-02-05T15:03:06.484Z,8.73
2019-02-05T15:08:02.434Z,7.37
2019-02-05T15:10:30.740Z,8.78
2019-02-05T15:12:59.107Z,9.38
2019-02-05T15:15:28.675Z,10.20
2019-02-05T15:17:57.422Z,12.95
2019-02-05T15:20:37.263Z,14.75
2019-02-05T15:23:06.395Z,13.93
2019-02-05T15:25:34.759Z,10.05
2019-02-05T15:28:03.090Z,10.45
2019-02-05T15:30:33.369Z,9.58
2019-02-05T15:33:19.309Z,8.90
2019-02-05T15:36:04.334Z,8.23
2019-02-05T15:38:32.720Z,10.20
2019-02-05T15:41:00.970Z,10.30
2019-02-05T15:43:29.279Z,9.85
2019-02-05T15:45:57.693Z,10.03
2019-02-05T15:48:26.052Z,9.08
2019-02-05T15:50:54.345Z,11.48
2019-02-05T15:53:23.127Z,10.50
2019-02-05T15:55:51.479Z,11.53
2019-02-05T15:58:19.803Z,10.08
2019-02-05T16:00:48.070Z,10.08
2019-02-05T16:03:16.602Z,9.10
2019-02-05T16:05:44.881Z,10.28
2019-02-05T16:08:13.311Z,10.43
2019-02-05T16:10:42.025Z,9.43
2019-02-05T16:13:10.375Z,9.03
2019-02-05T16:15:38.670Z,8.88
2019-02-05T16:18:07.015Z,9.05
2019-02-05T16:20:35.313Z,10.25
2019-02-05T16:23:03.666Z,9.85
2019-02-05T16:25:32.010Z,12.07
2019-02-05T16:28:00.387Z,17.45
2019-02-05T16:30:30.652Z,13.50
2019-02-05T16:32:59.011Z,13.40
2019-02-05T16:35:27.359Z,12.50
2019-02-05T16:37:55.723Z,24.92
2019-02-05T16:40:27.355Z,15.13
2019-02-05T16:42:56.122Z,14.90
2019-02-05T16:45:27.019Z,14.13
2019-02-05T16:47:55.400Z,14.87
2019-02-05T16:50:41.656Z,14.75
2019-02-05T16:53:10.547Z,13.93
2019-02-05T16:55:38.932Z,13.78
2019-02-05T16:58:07.326Z,12.95
2019-02-05T17:00:36.675Z,13.80
2019-02-05T17:03:06.295Z,15.78
2019-02-05T17:05:37.487Z,15.35
2019-02-05T17:08:06.074Z,16.30
2019-02-05T17:10:34.458Z,17.10
2019-02-05T17:13:02.832Z,16.90
2019-02-05T17:15:31.241Z,16.48
2019-02-05T17:17:59.620Z,17.10
2019-02-05T17:20:29.868Z,17.07
2019-02-05T17:23:00.521Z,15.67
2019-02-05T17:25:29.023Z,16.73
2019-02-05T17:27:59.535Z,13.80
2019-02-05T17:30:33.230Z,16.87
2019-02-05T17:33:01.505Z,17.17
2019-02-05T17:35:29.839Z,16.52
2019-02-05T17:37:58.133Z,16.73
2019-02-05T17:40:26.933Z,14.53
2019-02-05T17:42:55.673Z,17.35
2019-02-05T17:45:32.477Z,19.10
2019-02-05T17:48:02.413Z,20.23
2019-02-05T17:50:30.822Z,17.67
2019-02-05T17:52:59.496Z,17.23
2019-02-05T17:55:27.879Z,18.48
2019-02-05T17:57:56.190Z,18.98
2019-02-05T18:00:31.613Z,18.27
2019-02-05T18:02:59.939Z,19.75
2019-02-05T18:05:28.203Z,19.00
2019-02-05T18:07:56.882Z,17.50
2019-02-05T18:10:29.352Z,19.82
2019-02-05T18:12:57.729Z,21.65
2019-02-05T18:15:50.187Z,20.80
2019-02-05T18:18:19.248Z,22.52
2019-02-05T18:20:47.628Z,18.45
2019-02-05T18:23:16.035Z,22.30
2019-02-05T18:25:44.431Z,23.30
2019-02-05T18:28:12.683Z,24.57
2019-02-05T18:30:40.955Z,24.15
2019-02-05T18:33:09.690Z,19.52
2019-02-05T18:35:37.964Z,19.40
2019-02-05T18:38:09.539Z,18.55
2019-02-05T18:40:37.831Z,19.62
2019-02-05T18:43:06.200Z,19.80
2019-02-05T18:45:34.540Z,19.48
2019-02-05T18:48:02.802Z,20.50
2019-02-05T18:50:31.209Z,20.27
2019-02-05T18:52:59.572Z,19.50
2019-02-05T18:55:31.095Z,20.52
2019-02-05T18:58:08.938Z,22.27
2019-02-05T19:00:40.376Z,23.85
2019-02-05T19:03:15.353Z,21.27
2019-02-05T19:05:39.080Z,20.35
2019-02-05T19:08:07.714Z,19.42
2019-02-05T19:10:36.069Z,20.17
2019-02-05T19:13:04.828Z,17.70
2019-02-05T19:15:57.291Z,19.05
2019-02-05T19:18:25.623Z,21.42
2019-02-05T19:20:53.995Z,19.02
2019-02-05T19:23:22.372Z,21.48
2019-02-05T19:25:52.372Z,20.00
2019-02-05T19:28:22.364Z,19.80
2019-02-05T19:30:52.407Z,19.60
2019-02-05T19:33:27.123Z,18.13
2019-02-05T19:35:50.772Z,20.08
2019-02-05T19:38:19.042Z,23.47
2019-02-05T19:40:57.224Z,22.67
2019-02-05T19:43:17.336Z,20.05
2019-02-05T19:46:05.588Z,19.95
2019-02-05T19:48:35.644Z,21.57
2019-02-05T19:51:04.638Z,20.10
2019-02-05T19:53:32.978Z,21.07
2019-02-05T19:56:01.329Z,21.37
2019-02-05T19:58:30.097Z,22.75
2019-02-05T20:00:58.468Z,21.62
2019-02-05T20:03:38.097Z,23.27
2019-02-05T20:05:56.855Z,22.25
2019-02-05T20:08:26.934Z,24.92
2019-02-05T20:10:55.411Z,20.60
2019-02-05T20:13:23.678Z,21.70
2019-02-05T20:15:52.496Z,20.57
2019-02-05T20:18:20.830Z,23.00
2019-02-05T20:20:49.088Z,24.80
2019-02-05T20:23:17.438Z,22.45
2019-02-05T20:25:45.688Z,22.70
2019-02-05T20:28:13.962Z,22.55
2019-02-05T20:30:42.335Z,20.50
2019-02-05T20:33:10.763Z,19.35
2019-02-05T20:35:58.511Z,21.90
2019-02-05T20:38:26.890Z,20.40
2019-02-05T20:40:55.233Z,20.48
2019-02-05T20:43:23.636Z,22.17
2019-02-05T20:45:51.993Z,20.40
2019-02-05T20:48:20.344Z,21.02
2019-02-05T20:50:48.824Z,22.45
2019-02-05T20:53:17.151Z,20.57
2019-02-05T20:55:45.402Z,18.55
2019-02-05T20:58:13.812Z,19.15
2019-02-05T21:00:42.172Z,18.65
2019-02-05T21:03:10.494Z,19.48
2019-02-05T21:05:39.280Z,17.85
2019-02-05T21:08:07.641Z,21.30
2019-02-05T21:10:36.017Z,20.65
2019-02-05T21:13:04.351Z,20.65
2019-02-05T21:15:32.606Z,19.45
2019-02-05T21:18:01.041Z,19.25
2019-02-05T21:20:33.954Z,20.30
2019-02-05T21:23:01.671Z,19.00
2019-02-05T21:25:30.035Z,19.95
2019-02-05T21:27:58.760Z,20.02
2019-02-05T21:30:28.178Z,18.77
2019-02-05T21:32:56.542Z,20.62
2019-02-05T21:35:24.867Z,20.27
2019-02-05T21:37:53.232Z,20.27
2019-02-05T21:40:27.635Z,20.27
2019-02-05T21:42:55.948Z,21.40
2019-02-05T21:45:32.150Z,21.25
2019-02-05T21:48:00.439Z,20.85
2019-02-05T21:50:28.787Z,23.02
2019-02-05T21:52:57.310Z,21.15
2019-02-05T21:55:27.076Z,20.80
2019-02-05T21:57:55.868Z,20.20
2019-02-05T22:00:29.902Z,20.70
2019-02-05T22:02:58.440Z,22.00
2019-02-05T22:05:27.798Z,18.80
2019-02-05T22:07:56.137Z,20.82
2019-02-05T22:10:24.748Z,20.85
2019-02-05T22:12:53.083Z,21.23
2019-02-05T22:15:21.750Z,20.27
2019-02-05T22:17:50.090Z,20.30
2019-02-05T22:20:25.781Z,22.00
2019-02-05T22:22:56.153Z,22.75
2019-02-05T22:27:54.436Z,20.55
2019-02-05T22:30:28.081Z,21.70
2019-02-05T22:32:55.002Z,21.35
2019-02-05T22:35:23.390Z,20.30
2019-02-05T22:37:51.927Z,22.32
2019-02-05T22:40:22.546Z,22.58
2019-02-05T22:45:21.083Z,20.08
2019-02-05T22:47:49.467Z,20.97
2019-02-05T22:50:20.141Z,21.07
2019-02-05T22:52:48.509Z,21.12
2019-02-05T22:55:16.908Z,22.15
2019-02-05T22:57:45.325Z,23.38
2019-02-05T23:00:29.758Z,22.87
2019-02-05T23:02:58.083Z,21.15
2019-02-05T23:05:55.271Z,24.07
2019-02-05T23:08:23.611Z,22.27
2019-02-05T23:11:05.109Z,23.27
2019-02-05T23:13:33.560Z,22.20
2019-02-05T23:16:01.924Z,23.75
2019-02-05T23:18:30.299Z,23.83
2019-02-05T23:20:58.645Z,22.73
2019-02-05T23:23:27.043Z,25.72
2019-02-05T23:25:55.359Z,23.40
2019-02-05T23:28:23.720Z,24.43
2019-02-05T23:30:52.279Z,23.38
2019-02-05T23:33:20.536Z,24.18
2019-02-05T23:35:48.883Z,25.50
2019-02-05T23:38:17.147Z,23.52
2019-02-05T23:40:45.431Z,24.45
2019-02-05T23:43:13.771Z,21.57
2019-02-05T23:45:42.115Z,23.70
2019-02-05T23:48:10.386Z,22.60
2019-02-05T23:50:38.714Z,22.52
2019-02-05T23:53:07.064Z,22.45
2019-02-05T23:55:35.403Z,23.20
2019-02-05T23:58:16.019Z,24.67
